CheckWX is a tool to help pilots better visualize weather data.  It is not intended as a substitute for an official pre-flight weather briefing.

08:05:46 UTC

KCEW METAR
Bob Sikes Airport
Crestview, Florida, USA
Current

13 mins ago

KCEW 220753Z AUTO 02003KT 10SM CLR M03/M06 A3039 RMK AO2 SLP291 T10331061
Observed
Jan-22 @ 07:53 UTC
Wind
  • 020° at 3 KTS
Visibility
10 SM
Flight Rules
VFR
Cloud Levels
  • Clear skies
Temperature
-3°C / 27°F
Dewpoint
-6°C / 21°F
Humidity
80%
Altimeter
30.39" Hg
Pressure
1029.12 hPa
Previous

1 hour ago

KCEW 220653Z AUTO 00000KT 10SM CLR M02/M06 A3039 RMK AO2 SLP293 T10221061
Observed
Jan-22 @ 06:53 UTC
Visibility
10 SM
Flight Rules
VFR
Cloud Levels
  • Clear skies
Temperature
-2°C / 28°F
Dewpoint
-6°C / 21°F
Humidity
74%
Altimeter
30.39" Hg
Pressure
1029.12 hPa
Previous

2 hours ago

KCEW 220553Z AUTO 36003KT 10SM CLR M03/M06 A3041 RMK AO2 SLP297 T10281056 10022 21028 400781028 58010
Observed
Jan-22 @ 05:53 UTC
Wind
  • 360° at 3 KTS
Visibility
10 SM
Flight Rules
VFR
Cloud Levels
  • Clear skies
Temperature
-3°C / 27°F
Dewpoint
-6°C / 21°F
Humidity
80%
Altimeter
30.41" Hg
Pressure
1029.82 hPa